sensor_id;sensor_type;location;lat;lon;timestamp;P1;durP1;ratioP1;P2;durP2;ratioP2
76612;SDS011;65507;48.454;-2.058;2023-11-18T00:00:58;3.83;;;1.30;;
76612;SDS011;65507;48.454;-2.058;2023-11-18T00:03:23;2.35;;;1.05;;
76612;SDS011;65507;48.454;-2.058;2023-11-18T00:05:49;2.92;;;1.00;;
76612;SDS011;65507;48.454;-2.058;2023-11-18T00:08:15;1.85;;;1.05;;
76612;SDS011;65507;48.454;-2.058;2023-11-18T00:10:41;2.58;;;0.90;;
76612;SDS011;65507;48.454;-2.058;2023-11-18T00:13:06;5.43;;;1.17;;
76612;SDS011;65507;48.454;-2.058;2023-11-18T00:15:33;5.03;;;1.42;;
76612;SDS011;65507;48.454;-2.058;2023-11-18T00:18:00;4.57;;;1.40;;
76612;SDS011;65507;48.454;-2.058;2023-11-18T00:20:26;2.95;;;1.23;;
76612;SDS011;65507;48.454;-2.058;2023-11-18T00:22:52;2.20;;;1.30;;
76612;SDS011;65507;48.454;-2.058;2023-11-18T00:25:18;3.22;;;1.27;;
76612;SDS011;65507;48.454;-2.058;2023-11-18T00:27:43;5.55;;;1.73;;
76612;SDS011;65507;48.454;-2.058;2023-11-18T00:30:09;2.65;;;1.40;;
76612;SDS011;65507;48.454;-2.058;2023-11-18T00:32:38;3.70;;;1.17;;
76612;SDS011;65507;48.454;-2.058;2023-11-18T00:35:04;3.10;;;1.55;;
76612;SDS011;65507;48.454;-2.058;2023-11-18T00:37:30;5.33;;;1.70;;
76612;SDS011;65507;48.454;-2.058;2023-11-18T00:39:56;3.20;;;1.60;;
76612;SDS011;65507;48.454;-2.058;2023-11-18T00:42:22;2.53;;;1.58;;
76612;SDS011;65507;48.454;-2.058;2023-11-18T00:44:48;3.83;;;1.70;;
76612;SDS011;65507;48.454;-2.058;2023-11-18T00:47:14;2.30;;;1.60;;
76612;SDS011;65507;48.454;-2.058;2023-11-18T00:49:39;4.18;;;1.83;;
76612;SDS011;65507;48.454;-2.058;2023-11-18T00:52:05;6.72;;;1.55;;
76612;SDS011;65507;48.454;-2.058;2023-11-18T00:54:31;4.20;;;1.50;;
76612;SDS011;65507;48.454;-2.058;2023-11-18T00:56:57;3.05;;;1.63;;
76612;SDS011;65507;48.454;-2.058;2023-11-18T00:59:22;3.80;;;1.85;;
76612;SDS011;65507;48.454;-2.058;2023-11-18T01:01:48;3.35;;;1.92;;
76612;SDS011;65507;48.454;-2.058;2023-11-18T01:04:14;3.95;;;1.60;;
76612;SDS011;65507;48.454;-2.058;2023-11-18T01:06:41;4.93;;;2.05;;
76612;SDS011;65507;48.454;-2.058;2023-11-18T01:11:34;3.58;;;1.80;;
76612;SDS011;65507;48.454;-2.058;2023-11-18T01:14:00;4.57;;;2.20;;
76612;SDS011;65507;48.454;-2.058;2023-11-18T01:16:27;3.40;;;2.10;;
76612;SDS011;65507;48.454;-2.058;2023-11-18T01:18:53;3.70;;;1.95;;
76612;SDS011;65507;48.454;-2.058;2023-11-18T01:21:19;5.07;;;2.30;;
76612;SDS011;65507;48.454;-2.058;2023-11-18T01:23:45;6.13;;;2.20;;
76612;SDS011;65507;48.454;-2.058;2023-11-18T01:26:11;4.13;;;2.25;;
76612;SDS011;65507;48.454;-2.058;2023-11-18T01:28:37;5.03;;;2.28;;
76612;SDS011;65507;48.454;-2.058;2023-11-18T01:31:06;5.35;;;2.00;;
76612;SDS011;65507;48.454;-2.058;2023-11-18T01:33:35;6.05;;;2.30;;
76612;SDS011;65507;48.454;-2.058;2023-11-18T01:38:28;3.75;;;2.13;;
76612;SDS011;65507;48.454;-2.058;2023-11-18T01:40:55;3.05;;;2.00;;
76612;SDS011;65507;48.454;-2.058;2023-11-18T01:43:21;3.83;;;1.98;;
76612;SDS011;65507;48.454;-2.058;2023-11-18T01:45:47;3.10;;;2.10;;
76612;SDS011;65507;48.454;-2.058;2023-11-18T01:48:13;3.05;;;2.00;;
76612;SDS011;65507;48.454;-2.058;2023-11-18T01:50:40;2.90;;;1.95;;
76612;SDS011;65507;48.454;-2.058;2023-11-18T01:53:07;6.15;;;2.38;;
76612;SDS011;65507;48.454;-2.058;2023-11-18T01:55:35;4.60;;;1.92;;
76612;SDS011;65507;48.454;-2.058;2023-11-18T01:58:01;3.58;;;1.60;;
76612;SDS011;65507;48.454;-2.058;2023-11-18T02:00:34;1.70;;;1.52;;
76612;SDS011;65507;48.454;-2.058;2023-11-18T02:03:03;2.53;;;1.70;;
76612;SDS011;65507;48.454;-2.058;2023-11-18T02:07:58;2.67;;;2.13;;
76612;SDS011;65507;48.454;-2.058;2023-11-18T02:10:25;3.33;;;1.30;;
76612;SDS011;65507;48.454;-2.058;2023-11-18T02:13:04;1.67;;;1.15;;
76612;SDS011;65507;48.454;-2.058;2023-11-18T02:15:50;2.20;;;1.35;;
76612;SDS011;65507;48.454;-2.058;2023-11-18T02:18:24;2.28;;;1.20;;
76612;SDS011;65507;48.454;-2.058;2023-11-18T02:20:52;2.80;;;1.25;;
76612;SDS011;65507;48.454;-2.058;2023-11-18T02:23:20;2.42;;;0.90;;
76612;SDS011;65507;48.454;-2.058;2023-11-18T02:28:12;1.35;;;1.13;;
76612;SDS011;65507;48.454;-2.058;2023-11-18T02:30:39;1.42;;;0.90;;
76612;SDS011;65507;48.454;-2.058;2023-11-18T02:36:20;3.67;;;0.85;;
76612;SDS011;65507;48.454;-2.058;2023-11-18T02:39:06;1.80;;;0.77;;
76612;SDS011;65507;48.454;-2.058;2023-11-18T02:41:41;2.90;;;0.90;;
76612;SDS011;65507;48.454;-2.058;2023-11-18T02:44:10;1.30;;;1.10;;
76612;SDS011;65507;48.454;-2.058;2023-11-18T02:46:36;1.20;;;0.63;;
76612;SDS011;65507;48.454;-2.058;2023-11-18T02:49:03;1.05;;;0.80;;
76612;SDS011;65507;48.454;-2.058;2023-11-18T02:51:29;0.82;;;0.70;;
76612;SDS011;65507;48.454;-2.058;2023-11-18T02:54:07;1.13;;;0.70;;
76612;SDS011;65507;48.454;-2.058;2023-11-18T02:56:35;1.23;;;0.70;;
76612;SDS011;65507;48.454;-2.058;2023-11-18T02:59:02;1.48;;;1.08;;
76612;SDS011;65507;48.454;-2.058;2023-11-18T03:01:30;1.75;;;0.90;;
76612;SDS011;65507;48.454;-2.058;2023-11-18T03:03:57;2.60;;;0.75;;
76612;SDS011;65507;48.454;-2.058;2023-11-18T03:06:23;0.80;;;0.57;;
76612;SDS011;65507;48.454;-2.058;2023-11-18T03:08:50;0.70;;;0.70;;
76612;SDS011;65507;48.454;-2.058;2023-11-18T03:11:15;1.85;;;0.70;;
76612;SDS011;65507;48.454;-2.058;2023-11-18T03:13:42;3.33;;;0.75;;
76612;SDS011;65507;48.454;-2.058;2023-11-18T03:16:08;1.73;;;0.60;;
76612;SDS011;65507;48.454;-2.058;2023-11-18T03:18:37;0.65;;;0.57;;
76612;SDS011;65507;48.454;-2.058;2023-11-18T03:21:04;1.10;;;0.80;;
76612;SDS011;65507;48.454;-2.058;2023-11-18T03:23:31;1.80;;;0.90;;
76612;SDS011;65507;48.454;-2.058;2023-11-18T03:25:57;1.20;;;0.88;;
76612;SDS011;65507;48.454;-2.058;2023-11-18T03:28:23;2.05;;;0.80;;
76612;SDS011;65507;48.454;-2.058;2023-11-18T03:30:49;1.13;;;0.75;;
76612;SDS011;65507;48.454;-2.058;2023-11-18T03:33:14;1.85;;;0.82;;
76612;SDS011;65507;48.454;-2.058;2023-11-18T03:35:40;1.27;;;0.73;;
76612;SDS011;65507;48.454;-2.058;2023-11-18T03:38:06;1.23;;;0.80;;
76612;SDS011;65507;48.454;-2.058;2023-11-18T03:40:31;3.70;;;0.80;;
76612;SDS011;65507;48.454;-2.058;2023-11-18T03:43:00;0.90;;;0.75;;
76612;SDS011;65507;48.454;-2.058;2023-11-18T03:45:25;1.38;;;0.80;;
76612;SDS011;65507;48.454;-2.058;2023-11-18T03:47:51;1.90;;;0.80;;
76612;SDS011;65507;48.454;-2.058;2023-11-18T03:50:17;2.05;;;0.90;;
76612;SDS011;65507;48.454;-2.058;2023-11-18T03:52:42;1.58;;;0.85;;
76612;SDS011;65507;48.454;-2.058;2023-11-18T03:55:08;2.70;;;0.57;;
76612;SDS011;65507;48.454;-2.058;2023-11-18T03:57:34;1.25;;;0.80;;
76612;SDS011;65507;48.454;-2.058;2023-11-18T04:00:00;3.30;;;1.10;;
76612;SDS011;65507;48.454;-2.058;2023-11-18T04:02:25;2.00;;;0.90;;
76612;SDS011;65507;48.454;-2.058;2023-11-18T04:04:51;1.45;;;0.73;;
76612;SDS011;65507;48.454;-2.058;2023-11-18T04:07:17;4.70;;;0.70;;
76612;SDS011;65507;48.454;-2.058;2023-11-18T04:09:42;2.90;;;0.80;;
76612;SDS011;65507;48.454;-2.058;2023-11-18T04:12:09;3.42;;;0.80;;
76612;SDS011;65507;48.454;-2.058;2023-11-18T04:14:35;3.53;;;1.00;;
76612;SDS011;65507;48.454;-2.058;2023-11-18T04:17:01;5.63;;;0.77;;
76612;SDS011;65507;48.454;-2.058;2023-11-18T04:19:27;2.60;;;0.52;;
76612;SDS011;65507;48.454;-2.058;2023-11-18T04:21:53;1.10;;;0.80;;
76612;SDS011;65507;48.454;-2.058;2023-11-18T04:24:19;5.93;;;0.77;;
76612;SDS011;65507;48.454;-2.058;2023-11-18T04:26:44;4.45;;;0.80;;
76612;SDS011;65507;48.454;-2.058;2023-11-18T04:29:11;5.10;;;0.85;;
76612;SDS011;65507;48.454;-2.058;2023-11-18T04:31:36;2.60;;;0.73;;
76612;SDS011;65507;48.454;-2.058;2023-11-18T04:34:02;1.60;;;0.57;;
76612;SDS011;65507;48.454;-2.058;2023-11-18T04:36:29;3.28;;;0.90;;
76612;SDS011;65507;48.454;-2.058;2023-11-18T04:38:56;4.68;;;1.10;;
76612;SDS011;65507;48.454;-2.058;2023-11-18T04:41:22;4.75;;;1.17;;
76612;SDS011;65507;48.454;-2.058;2023-11-18T04:43:48;2.05;;;0.60;;
76612;SDS011;65507;48.454;-2.058;2023-11-18T04:46:15;4.63;;;0.88;;
76612;SDS011;65507;48.454;-2.058;2023-11-18T04:48:40;4.25;;;0.70;;
76612;SDS011;65507;48.454;-2.058;2023-11-18T04:51:06;9.55;;;0.90;;
76612;SDS011;65507;48.454;-2.058;2023-11-18T04:53:32;4.95;;;0.90;;
76612;SDS011;65507;48.454;-2.058;2023-11-18T04:55:59;5.28;;;0.88;;
76612;SDS011;65507;48.454;-2.058;2023-11-18T04:58:24;2.47;;;0.70;;
76612;SDS011;65507;48.454;-2.058;2023-11-18T05:00:50;1.88;;;0.75;;
76612;SDS011;65507;48.454;-2.058;2023-11-18T05:03:16;4.40;;;1.10;;
76612;SDS011;65507;48.454;-2.058;2023-11-18T05:05:42;6.55;;;0.80;;
76612;SDS011;65507;48.454;-2.058;2023-11-18T05:08:08;0.82;;;0.70;;
76612;SDS011;65507;48.454;-2.058;2023-11-18T05:10:46;2.50;;;0.63;;
76612;SDS011;65507;48.454;-2.058;2023-11-18T05:13:13;5.57;;;1.17;;
76612;SDS011;65507;48.454;-2.058;2023-11-18T05:15:41;3.72;;;0.98;;
76612;SDS011;65507;48.454;-2.058;2023-11-18T05:18:11;4.65;;;1.13;;
76612;SDS011;65507;48.454;-2.058;2023-11-18T05:20:39;5.55;;;0.90;;
76612;SDS011;65507;48.454;-2.058;2023-11-18T05:23:09;3.67;;;0.85;;
76612;SDS011;65507;48.454;-2.058;2023-11-18T05:25:40;3.20;;;0.85;;
76612;SDS011;65507;48.454;-2.058;2023-11-18T05:28:08;4.82;;;0.90;;
76612;SDS011;65507;48.454;-2.058;2023-11-18T05:30:34;3.20;;;0.60;;
76612;SDS011;65507;48.454;-2.058;2023-11-18T05:33:04;0.50;;;0.50;;
76612;SDS011;65507;48.454;-2.058;2023-11-18T05:35:30;6.78;;;0.98;;
76612;SDS011;65507;48.454;-2.058;2023-11-18T05:37:57;2.28;;;0.63;;
76612;SDS011;65507;48.454;-2.058;2023-11-18T05:40:23;3.15;;;1.30;;
76612;SDS011;65507;48.454;-2.058;2023-11-18T05:42:50;2.58;;;0.93;;
76612;SDS011;65507;48.454;-2.058;2023-11-18T05:45:17;2.67;;;0.70;;
76612;SDS011;65507;48.454;-2.058;2023-11-18T05:47:55;2.92;;;0.60;;
76612;SDS011;65507;48.454;-2.058;2023-11-18T05:50:22;1.40;;;0.60;;
76612;SDS011;65507;48.454;-2.058;2023-11-18T05:52:52;0.47;;;0.45;;
76612;SDS011;65507;48.454;-2.058;2023-11-18T05:55:18;1.05;;;0.60;;
76612;SDS011;65507;48.454;-2.058;2023-11-18T05:57:44;2.90;;;0.68;;
76612;SDS011;65507;48.454;-2.058;2023-11-18T06:00:14;1.55;;;0.70;;
76612;SDS011;65507;48.454;-2.058;2023-11-18T06:02:41;3.40;;;0.80;;
76612;SDS011;65507;48.454;-2.058;2023-11-18T06:05:07;1.38;;;0.55;;
76612;SDS011;65507;48.454;-2.058;2023-11-18T06:07:33;3.20;;;0.60;;
76612;SDS011;65507;48.454;-2.058;2023-11-18T06:10:00;4.50;;;0.80;;
76612;SDS011;65507;48.454;-2.058;2023-11-18T06:12:27;1.73;;;0.50;;
76612;SDS011;65507;48.454;-2.058;2023-11-18T06:14:52;0.77;;;0.60;;
76612;SDS011;65507;48.454;-2.058;2023-11-18T06:17:18;3.75;;;0.70;;
76612;SDS011;65507;48.454;-2.058;2023-11-18T06:19:44;4.53;;;0.80;;
76612;SDS011;65507;48.454;-2.058;2023-11-18T06:22:10;3.80;;;0.70;;
76612;SDS011;65507;48.454;-2.058;2023-11-18T06:24:35;2.90;;;0.68;;
76612;SDS011;65507;48.454;-2.058;2023-11-18T06:27:04;3.72;;;0.70;;
76612;SDS011;65507;48.454;-2.058;2023-11-18T06:29:33;2.88;;;0.82;;
76612;SDS011;65507;48.454;-2.058;2023-11-18T06:31:59;1.50;;;0.70;;
76612;SDS011;65507;48.454;-2.058;2023-11-18T06:34:25;2.83;;;0.60;;
76612;SDS011;65507;48.454;-2.058;2023-11-18T06:36:52;1.90;;;1.00;;
76612;SDS011;65507;48.454;-2.058;2023-11-18T06:39:18;0.40;;;0.40;;
76612;SDS011;65507;48.454;-2.058;2023-11-18T06:41:46;6.00;;;0.90;;
76612;SDS011;65507;48.454;-2.058;2023-11-18T06:44:15;1.60;;;0.88;;
76612;SDS011;65507;48.454;-2.058;2023-11-18T06:46:48;2.97;;;0.88;;
76612;SDS011;65507;48.454;-2.058;2023-11-18T06:49:15;1.65;;;0.93;;
76612;SDS011;65507;48.454;-2.058;2023-11-18T06:51:44;1.80;;;0.77;;
76612;SDS011;65507;48.454;-2.058;2023-11-18T06:54:10;2.13;;;0.60;;
76612;SDS011;65507;48.454;-2.058;2023-11-18T06:56:42;2.95;;;0.82;;
76612;SDS011;65507;48.454;-2.058;2023-11-18T06:59:08;5.07;;;0.82;;
76612;SDS011;65507;48.454;-2.058;2023-11-18T07:01:37;3.35;;;0.98;;
76612;SDS011;65507;48.454;-2.058;2023-11-18T07:04:05;7.80;;;1.02;;
76612;SDS011;65507;48.454;-2.058;2023-11-18T07:06:33;3.67;;;0.77;;
76612;SDS011;65507;48.454;-2.058;2023-11-18T07:09:03;2.90;;;0.90;;
76612;SDS011;65507;48.454;-2.058;2023-11-18T07:11:37;4.72;;;0.90;;
76612;SDS011;65507;48.454;-2.058;2023-11-18T07:14:03;4.00;;;0.90;;
76612;SDS011;65507;48.454;-2.058;2023-11-18T07:16:29;4.93;;;1.17;;
76612;SDS011;65507;48.454;-2.058;2023-11-18T07:18:54;2.35;;;1.02;;
76612;SDS011;65507;48.454;-2.058;2023-11-18T07:21:20;3.53;;;1.10;;
76612;SDS011;65507;48.454;-2.058;2023-11-18T07:23:46;2.30;;;0.98;;
76612;SDS011;65507;48.454;-2.058;2023-11-18T07:26:11;2.88;;;0.80;;
76612;SDS011;65507;48.454;-2.058;2023-11-18T07:28:39;5.75;;;0.93;;
76612;SDS011;65507;48.454;-2.058;2023-11-18T07:31:05;4.70;;;1.30;;
76612;SDS011;65507;48.454;-2.058;2023-11-18T07:33:30;3.35;;;1.10;;
76612;SDS011;65507;48.454;-2.058;2023-11-18T07:35:57;1.52;;;0.88;;
76612;SDS011;65507;48.454;-2.058;2023-11-18T07:38:23;4.82;;;0.95;;
76612;SDS011;65507;48.454;-2.058;2023-11-18T07:40:49;2.05;;;0.85;;
76612;SDS011;65507;48.454;-2.058;2023-11-18T07:43:17;6.15;;;1.00;;
76612;SDS011;65507;48.454;-2.058;2023-11-18T07:45:46;1.52;;;1.02;;
76612;SDS011;65507;48.454;-2.058;2023-11-18T07:48:14;1.27;;;0.77;;
76612;SDS011;65507;48.454;-2.058;2023-11-18T07:50:42;3.05;;;0.80;;
76612;SDS011;65507;48.454;-2.058;2023-11-18T07:53:12;5.25;;;1.25;;
76612;SDS011;65507;48.454;-2.058;2023-11-18T07:55:38;1.63;;;0.98;;
76612;SDS011;65507;48.454;-2.058;2023-11-18T07:58:05;1.52;;;0.98;;
76612;SDS011;65507;48.454;-2.058;2023-11-18T08:00:39;2.15;;;1.20;;
76612;SDS011;65507;48.454;-2.058;2023-11-18T08:03:06;5.18;;;1.60;;
76612;SDS011;65507;48.454;-2.058;2023-11-18T08:05:36;3.42;;;0.90;;
76612;SDS011;65507;48.454;-2.058;2023-11-18T08:08:04;4.32;;;0.88;;
76612;SDS011;65507;48.454;-2.058;2023-11-18T08:10:34;3.45;;;1.10;;
76612;SDS011;65507;48.454;-2.058;2023-11-18T08:13:02;2.65;;;0.93;;
76612;SDS011;65507;48.454;-2.058;2023-11-18T08:15:29;1.65;;;1.00;;
76612;SDS011;65507;48.454;-2.058;2023-11-18T08:17:56;3.80;;;0.95;;
76612;SDS011;65507;48.454;-2.058;2023-11-18T08:20:21;3.58;;;0.90;;
76612;SDS011;65507;48.454;-2.058;2023-11-18T08:22:49;2.00;;;0.80;;
76612;SDS011;65507;48.454;-2.058;2023-11-18T08:25:15;3.25;;;1.20;;
76612;SDS011;65507;48.454;-2.058;2023-11-18T08:27:43;2.85;;;0.98;;
76612;SDS011;65507;48.454;-2.058;2023-11-18T08:30:10;1.63;;;0.90;;
76612;SDS011;65507;48.454;-2.058;2023-11-18T08:32:38;2.38;;;1.10;;
76612;SDS011;65507;48.454;-2.058;2023-11-18T08:35:07;2.28;;;0.73;;
76612;SDS011;65507;48.454;-2.058;2023-11-18T08:37:33;2.72;;;1.02;;
76612;SDS011;65507;48.454;-2.058;2023-11-18T08:40:01;3.15;;;0.93;;
76612;SDS011;65507;48.454;-2.058;2023-11-18T08:42:47;3.00;;;1.20;;
76612;SDS011;65507;48.454;-2.058;2023-11-18T08:45:21;1.30;;;0.63;;
76612;SDS011;65507;48.454;-2.058;2023-11-18T08:47:58;2.78;;;1.08;;
76612;SDS011;65507;48.454;-2.058;2023-11-18T08:50:27;1.83;;;0.88;;
76612;SDS011;65507;48.454;-2.058;2023-11-18T08:52:54;3.92;;;1.20;;
76612;SDS011;65507;48.454;-2.058;2023-11-18T08:55:23;3.35;;;0.93;;
76612;SDS011;65507;48.454;-2.058;2023-11-18T08:58:03;3.10;;;1.02;;
76612;SDS011;65507;48.454;-2.058;2023-11-18T09:00:40;2.30;;;0.95;;
76612;SDS011;65507;48.454;-2.058;2023-11-18T09:03:10;2.10;;;0.80;;
76612;SDS011;65507;48.454;-2.058;2023-11-18T09:05:48;5.07;;;1.10;;
76612;SDS011;65507;48.454;-2.058;2023-11-18T09:10:52;2.72;;;1.38;;
76612;SDS011;65507;48.454;-2.058;2023-11-18T09:13:22;6.85;;;1.20;;
76612;SDS011;65507;48.454;-2.058;2023-11-18T09:15:55;8.20;;;1.63;;
76612;SDS011;65507;48.454;-2.058;2023-11-18T09:20:49;7.47;;;1.20;;
76612;SDS011;65507;48.454;-2.058;2023-11-18T09:23:17;2.72;;;1.02;;
76612;SDS011;65507;48.454;-2.058;2023-11-18T09:25:45;3.95;;;1.00;;
76612;SDS011;65507;48.454;-2.058;2023-11-18T09:28:12;4.00;;;1.40;;
76612;SDS011;65507;48.454;-2.058;2023-11-18T09:30:42;3.95;;;1.00;;
76612;SDS011;65507;48.454;-2.058;2023-11-18T09:33:23;6.65;;;1.50;;
76612;SDS011;65507;48.454;-2.058;2023-11-18T09:38:36;3.25;;;1.13;;
76612;SDS011;65507;48.454;-2.058;2023-11-18T09:41:03;8.48;;;1.25;;
76612;SDS011;65507;48.454;-2.058;2023-11-18T09:43:34;4.75;;;1.15;;
76612;SDS011;65507;48.454;-2.058;2023-11-18T09:46:16;4.05;;;0.98;;
76612;SDS011;65507;48.454;-2.058;2023-11-18T09:48:51;2.90;;;1.23;;
76612;SDS011;65507;48.454;-2.058;2023-11-18T09:51:22;3.63;;;0.90;;
76612;SDS011;65507;48.454;-2.058;2023-11-18T09:53:50;3.40;;;1.10;;
76612;SDS011;65507;48.454;-2.058;2023-11-18T09:56:41;7.78;;;3.17;;
76612;SDS011;65507;48.454;-2.058;2023-11-18T09:59:43;5.20;;;1.92;;
76612;SDS011;65507;48.454;-2.058;2023-11-18T10:02:35;4.40;;;1.60;;
76612;SDS011;65507;48.454;-2.058;2023-11-18T10:05:06;5.65;;;2.72;;
76612;SDS011;65507;48.454;-2.058;2023-11-18T10:07:37;6.00;;;1.00;;
76612;SDS011;65507;48.454;-2.058;2023-11-18T10:10:06;2.53;;;1.33;;
76612;SDS011;65507;48.454;-2.058;2023-11-18T10:12:40;5.00;;;1.40;;
76612;SDS011;65507;48.454;-2.058;2023-11-18T10:15:17;5.15;;;1.60;;
76612;SDS011;65507;48.454;-2.058;2023-11-18T10:17:50;3.17;;;1.23;;
76612;SDS011;65507;48.454;-2.058;2023-11-18T10:20:44;2.50;;;1.35;;
76612;SDS011;65507;48.454;-2.058;2023-11-18T10:23:12;7.13;;;2.00;;
76612;SDS011;65507;48.454;-2.058;2023-11-18T10:28:22;5.88;;;1.80;;
76612;SDS011;65507;48.454;-2.058;2023-11-18T10:30:57;6.18;;;1.45;;
76612;SDS011;65507;48.454;-2.058;2023-11-18T10:33:28;2.90;;;1.60;;
76612;SDS011;65507;48.454;-2.058;2023-11-18T10:36:00;4.50;;;1.67;;
76612;SDS011;65507;48.454;-2.058;2023-11-18T10:38:31;7.05;;;1.75;;
76612;SDS011;65507;48.454;-2.058;2023-11-18T10:41:04;6.00;;;1.70;;
76612;SDS011;65507;48.454;-2.058;2023-11-18T10:43:30;10.82;;;2.28;;
76612;SDS011;65507;48.454;-2.058;2023-11-18T10:46:04;4.13;;;1.50;;
76612;SDS011;65507;48.454;-2.058;2023-11-18T10:51:18;6.38;;;1.65;;
76612;SDS011;65507;48.454;-2.058;2023-11-18T10:53:49;7.28;;;2.50;;
76612;SDS011;65507;48.454;-2.058;2023-11-18T10:56:28;8.23;;;1.70;;
76612;SDS011;65507;48.454;-2.058;2023-11-18T10:58:55;8.00;;;1.70;;
76612;SDS011;65507;48.454;-2.058;2023-11-18T11:01:28;7.07;;;1.58;;
76612;SDS011;65507;48.454;-2.058;2023-11-18T11:03:57;8.35;;;2.08;;
76612;SDS011;65507;48.454;-2.058;2023-11-18T11:06:24;6.25;;;1.52;;
76612;SDS011;65507;48.454;-2.058;2023-11-18T11:08:51;5.22;;;1.58;;
76612;SDS011;65507;48.454;-2.058;2023-11-18T11:11:21;4.47;;;1.50;;
76612;SDS011;65507;48.454;-2.058;2023-11-18T11:13:49;6.00;;;1.40;;
76612;SDS011;65507;48.454;-2.058;2023-11-18T11:16:20;8.80;;;2.20;;
76612;SDS011;65507;48.454;-2.058;2023-11-18T11:18:55;6.15;;;1.83;;
76612;SDS011;65507;48.454;-2.058;2023-11-18T11:21:26;4.78;;;1.77;;
76612;SDS011;65507;48.454;-2.058;2023-11-18T11:23:55;8.57;;;3.08;;
76612;SDS011;65507;48.454;-2.058;2023-11-18T11:26:41;9.68;;;3.03;;
76612;SDS011;65507;48.454;-2.058;2023-11-18T11:29:35;8.52;;;2.30;;
76612;SDS011;65507;48.454;-2.058;2023-11-18T11:34:51;5.10;;;1.30;;
76612;SDS011;65507;48.454;-2.058;2023-11-18T11:37:22;6.00;;;1.58;;
76612;SDS011;65507;48.454;-2.058;2023-11-18T11:39:51;8.85;;;2.13;;
76612;SDS011;65507;48.454;-2.058;2023-11-18T11:42:19;9.27;;;1.90;;
76612;SDS011;65507;48.454;-2.058;2023-11-18T11:44:46;9.93;;;2.15;;
76612;SDS011;65507;48.454;-2.058;2023-11-18T11:47:18;5.38;;;1.42;;
76612;SDS011;65507;48.454;-2.058;2023-11-18T11:49:47;7.70;;;1.50;;
76612;SDS011;65507;48.454;-2.058;2023-11-18T11:52:38;7.70;;;1.95;;
76612;SDS011;65507;48.454;-2.058;2023-11-18T11:55:15;7.40;;;1.52;;
76612;SDS011;65507;48.454;-2.058;2023-11-18T11:57:53;8.38;;;1.83;;
76612;SDS011;65507;48.454;-2.058;2023-11-18T12:00:23;4.57;;;1.50;;
76612;SDS011;65507;48.454;-2.058;2023-11-18T12:02:51;9.55;;;2.10;;
76612;SDS011;65507;48.454;-2.058;2023-11-18T12:05:24;6.38;;;1.88;;
76612;SDS011;65507;48.454;-2.058;2023-11-18T12:07:54;4.30;;;1.80;;
76612;SDS011;65507;48.454;-2.058;2023-11-18T12:10:20;7.95;;;1.88;;
76612;SDS011;65507;48.454;-2.058;2023-11-18T12:12:47;5.40;;;2.07;;
76612;SDS011;65507;48.454;-2.058;2023-11-18T12:15:13;6.07;;;1.52;;
76612;SDS011;65507;48.454;-2.058;2023-11-18T12:20:39;4.55;;;1.73;;
76612;SDS011;65507;48.454;-2.058;2023-11-18T12:23:09;3.85;;;1.20;;
76612;SDS011;65507;48.454;-2.058;2023-11-18T12:25:45;9.52;;;1.40;;
76612;SDS011;65507;48.454;-2.058;2023-11-18T12:28:15;4.32;;;1.33;;
76612;SDS011;65507;48.454;-2.058;2023-11-18T12:30:42;5.72;;;1.38;;
76612;SDS011;65507;48.454;-2.058;2023-11-18T12:33:20;4.68;;;1.15;;
76612;SDS011;65507;48.454;-2.058;2023-11-18T12:41:37;5.63;;;1.40;;
76612;SDS011;65507;48.454;-2.058;2023-11-18T12:44:16;2.83;;;0.88;;
76612;SDS011;65507;48.454;-2.058;2023-11-18T12:47:00;7.03;;;1.23;;
76612;SDS011;65507;48.454;-2.058;2023-11-18T12:49:55;3.80;;;0.98;;
76612;SDS011;65507;48.454;-2.058;2023-11-18T12:52:21;2.80;;;1.00;;
76612;SDS011;65507;48.454;-2.058;2023-11-18T12:54:48;3.83;;;1.10;;
76612;SDS011;65507;48.454;-2.058;2023-11-18T12:57:19;1.27;;;0.60;;
76612;SDS011;65507;48.454;-2.058;2023-11-18T12:59:47;2.92;;;0.90;;
76612;SDS011;65507;48.454;-2.058;2023-11-18T13:04:44;3.40;;;0.90;;
76612;SDS011;65507;48.454;-2.058;2023-11-18T13:07:21;5.28;;;0.60;;
76612;SDS011;65507;48.454;-2.058;2023-11-18T13:09:47;2.10;;;1.00;;
76612;SDS011;65507;48.454;-2.058;2023-11-18T13:12:13;2.88;;;0.60;;
76612;SDS011;65507;48.454;-2.058;2023-11-18T13:14:40;2.78;;;0.70;;
76612;SDS011;65507;48.454;-2.058;2023-11-18T13:17:11;1.70;;;0.70;;
76612;SDS011;65507;48.454;-2.058;2023-11-18T13:19:40;4.75;;;0.80;;
76612;SDS011;65507;48.454;-2.058;2023-11-18T13:22:13;2.55;;;0.80;;
76612;SDS011;65507;48.454;-2.058;2023-11-18T13:24:40;3.85;;;0.60;;
76612;SDS011;65507;48.454;-2.058;2023-11-18T13:27:09;1.42;;;0.88;;
76612;SDS011;65507;48.454;-2.058;2023-11-18T13:29:36;2.80;;;0.90;;
76612;SDS011;65507;48.454;-2.058;2023-11-18T13:32:04;2.97;;;0.95;;
76612;SDS011;65507;48.454;-2.058;2023-11-18T13:34:32;3.25;;;0.70;;
76612;SDS011;65507;48.454;-2.058;2023-11-18T13:37:03;2.83;;;0.70;;
76612;SDS011;65507;48.454;-2.058;2023-11-18T13:39:31;2.13;;;0.80;;
76612;SDS011;65507;48.454;-2.058;2023-11-18T13:41:57;1.60;;;0.70;;
76612;SDS011;65507;48.454;-2.058;2023-11-18T13:44:38;2.67;;;0.70;;
76612;SDS011;65507;48.454;-2.058;2023-11-18T13:47:04;3.50;;;0.80;;
76612;SDS011;65507;48.454;-2.058;2023-11-18T13:49:36;0.80;;;0.60;;
76612;SDS011;65507;48.454;-2.058;2023-11-18T13:52:06;0.73;;;0.65;;
76612;SDS011;65507;48.454;-2.058;2023-11-18T13:54:34;7.25;;;0.85;;
76612;SDS011;65507;48.454;-2.058;2023-11-18T13:57:00;3.85;;;1.02;;
76612;SDS011;65507;48.454;-2.058;2023-11-18T13:59:28;1.27;;;0.63;;
76612;SDS011;65507;48.454;-2.058;2023-11-18T14:01:55;2.20;;;0.70;;
76612;SDS011;65507;48.454;-2.058;2023-11-18T14:04:24;0.82;;;0.60;;
76612;SDS011;65507;48.454;-2.058;2023-11-18T14:06:52;0.73;;;0.52;;
76612;SDS011;65507;48.454;-2.058;2023-11-18T14:09:21;1.42;;;0.40;;
76612;SDS011;65507;48.454;-2.058;2023-11-18T14:11:50;2.55;;;0.73;;
76612;SDS011;65507;48.454;-2.058;2023-11-18T14:14:16;2.57;;;0.57;;
76612;SDS011;65507;48.454;-2.058;2023-11-18T14:16:43;2.33;;;0.57;;
76612;SDS011;65507;48.454;-2.058;2023-11-18T14:19:09;1.20;;;0.40;;
76612;SDS011;65507;48.454;-2.058;2023-11-18T14:21:36;3.28;;;0.63;;
76612;SDS011;65507;48.454;-2.058;2023-11-18T14:24:02;1.70;;;0.50;;
76612;SDS011;65507;48.454;-2.058;2023-11-18T14:26:28;0.70;;;0.40;;
76612;SDS011;65507;48.454;-2.058;2023-11-18T14:28:56;0.52;;;0.40;;
76612;SDS011;65507;48.454;-2.058;2023-11-18T14:31:24;1.73;;;0.65;;
76612;SDS011;65507;48.454;-2.058;2023-11-18T14:33:50;1.73;;;0.70;;
76612;SDS011;65507;48.454;-2.058;2023-11-18T14:36:16;1.92;;;0.50;;
76612;SDS011;65507;48.454;-2.058;2023-11-18T14:38:42;1.85;;;0.47;;
76612;SDS011;65507;48.454;-2.058;2023-11-18T14:43:35;0.57;;;0.50;;
76612;SDS011;65507;48.454;-2.058;2023-11-18T14:46:01;1.85;;;0.65;;
76612;SDS011;65507;48.454;-2.058;2023-11-18T14:48:29;1.55;;;0.60;;
76612;SDS011;65507;48.454;-2.058;2023-11-18T14:50:54;0.75;;;0.55;;
76612;SDS011;65507;48.454;-2.058;2023-11-18T14:53:22;0.80;;;0.50;;
76612;SDS011;65507;48.454;-2.058;2023-11-18T14:55:48;0.70;;;0.40;;
76612;SDS011;65507;48.454;-2.058;2023-11-18T14:58:14;1.88;;;0.43;;
76612;SDS011;65507;48.454;-2.058;2023-11-18T15:00:39;0.98;;;0.50;;
76612;SDS011;65507;48.454;-2.058;2023-11-18T15:03:07;1.98;;;0.50;;
76612;SDS011;65507;48.454;-2.058;2023-11-18T15:05:33;0.75;;;0.40;;
76612;SDS011;65507;48.454;-2.058;2023-11-18T15:07:59;1.73;;;0.55;;
76612;SDS011;65507;48.454;-2.058;2023-11-18T15:10:26;1.85;;;0.40;;
76612;SDS011;65507;48.454;-2.058;2023-11-18T15:15:20;1.52;;;0.43;;
76612;SDS011;65507;48.454;-2.058;2023-11-18T15:17:47;0.43;;;0.40;;
76612;SDS011;65507;48.454;-2.058;2023-11-18T15:20:16;2.13;;;0.50;;
76612;SDS011;65507;48.454;-2.058;2023-11-18T15:22:43;3.30;;;1.08;;
76612;SDS011;65507;48.454;-2.058;2023-11-18T15:25:10;2.25;;;0.50;;
76612;SDS011;65507;48.454;-2.058;2023-11-18T15:27:38;1.30;;;0.45;;